METAR Data
IDs: Format: Raw Decoded Include TAF

Data at: 1956 UTC 17 Nov 2019

METAR for:PANC (Anchorage Intl, AK, US)
Text:PANC 171953Z 15006KT 10SM BKN035 02/M03 A2934 RMK AO2 SLP939 T00171033 $
Temperature: 1.7°C ( 35°F)
Dewpoint: -3.3°C ( 26°F) [RH = 69%]
Pressure (altimeter):29.34 inches Hg ( 993.6 mb) [Sea level pressure: 993.9 mb]
Winds:from the SSE (150 degrees) at 7 MPH (6 knots; 3.1 m/s)
Visibility:10 or more sm (16+ km)
Ceiling:3500 feet AGL
Clouds: broken clouds at 3500 feet AGL
QC Flag:SOME DATA ABOVE MAY BE INACCURATE!!!"$" is an indication the sensor requires maintenance.
Text:PANC 171853Z 13007KT 10SM BKN035 01/M03 A2933 RMK AO2 SLP933 T00111033 $
Temperature: 1.1°C ( 34°F)
Dewpoint: -3.3°C ( 26°F) [RH = 72%]
Pressure (altimeter):29.33 inches Hg ( 993.3 mb) [Sea level pressure: 993.3 mb]
Winds:from the SE (130 degrees) at 8 MPH (7 knots; 3.6 m/s)
Visibility:10 or more sm (16+ km)
Ceiling:3500 feet AGL
Clouds: broken clouds at 3500 feet AGL
QC Flag:SOME DATA ABOVE MAY BE INACCURATE!!!"$" is an indication the sensor requires maintenance.
Text:PANC 171753Z 14007KT 10SM FEW035 00/M04 A2930 RMK AO2 SLP925 4/007 T00001044 10022 21011 51016 $
Temperature: 0.0°C ( 32°F)
Dewpoint: -4.4°C ( 24°F) [RH = 72%]
Pressure (altimeter):29.30 inches Hg ( 992.3 mb) [Sea level pressure: 992.5 mb]
Winds:from the SE (140 degrees) at 8 MPH (7 knots; 3.6 m/s)
Visibility:10 or more sm (16+ km)
Ceiling:at least 12,000 feet AGL
Clouds: few clouds at 3500 feet AGL
QC Flag:SOME DATA ABOVE MAY BE INACCURATE!!!"$" is an indication the sensor requires maintenance.
Text:PANC 171653Z 14005KT 10SM FEW050 M01/M05 A2929 RMK AO2 SLP921 T10111050 $
Temperature: -1.1°C ( 30°F)
Dewpoint: -5.0°C ( 23°F) [RH = 75%]
Pressure (altimeter):29.29 inches Hg ( 992.0 mb) [Sea level pressure: 992.1 mb]
Winds:from the SE (140 degrees) at 6 MPH (5 knots; 2.6 m/s)
Visibility:10 or more sm (16+ km)
Ceiling:at least 12,000 feet AGL
Clouds: few clouds at 5000 feet AGL
QC Flag:SOME DATA ABOVE MAY BE INACCURATE!!!"$" is an indication the sensor requires maintenance.
Text:PANC 171553Z 16003KT 10SM FEW050 M01/M03 A2927 RMK AO2 SLP914 T10061033 $
Temperature: -0.6°C ( 31°F)
Dewpoint: -3.3°C ( 26°F) [RH = 82%]
Pressure (altimeter):29.27 inches Hg ( 991.3 mb) [Sea level pressure: 991.4 mb]
Winds:from the SSE (160 degrees) at 3 MPH (3 knots; 1.5 m/s)
Visibility:10 or more sm (16+ km)
Ceiling:at least 12,000 feet AGL
Clouds: few clouds at 5000 feet AGL
QC Flag:SOME DATA ABOVE MAY BE INACCURATE!!!"$" is an indication the sensor requires maintenance.
Text:PANC 171453Z 16004KT 10SM SCT050 01/M03 A2926 RMK AO2 SLP909 T00111033 53017 $
Temperature: 1.1°C ( 34°F)
Dewpoint: -3.3°C ( 26°F) [RH = 72%]
Pressure (altimeter):29.26 inches Hg ( 990.9 mb) [Sea level pressure: 990.9 mb]
Winds:from the SSE (160 degrees) at 5 MPH (4 knots; 2.1 m/s)
Visibility:10 or more sm (16+ km)
Ceiling:at least 12,000 feet AGL
Clouds: scattered clouds at 5000 feet AGL
QC Flag:SOME DATA ABOVE MAY BE INACCURATE!!!"$" is an indication the sensor requires maintenance.

TAF for:PANC (Anchorage Intl, AK, US) issued at 1901 UTC 17 Nov 2019
Text:PANC 171901Z 1719/1824 16006KT P6SM SCT035
Forecast period:1900 to 2200 UTC 17 November 2019
Forecast type:FROM: standard forecast or significant change
Winds:from the SSE (160 degrees) at 7 MPH (6 knots; 3.1 m/s)
Visibility:6 or more sm (10+ km)
Ceiling:at least 12,000 feet AGL
Clouds: scattered clouds at 3500 feet AGL
Text:TEMPO 1719/1722 BKN035
Forecast period:1900 to 2200 UTC 17 November 2019
Forecast type:TEMPORARY: The following changes expected for less than half the time period
Ceiling:3500 feet AGL
Clouds: broken clouds at 3500 feet AGL
Text:FM172200 19005KT P6SM FEW035 BKN050
Forecast period:2200 UTC 17 November 2019 to 0000 UTC 18 November 2019
Forecast type:FROM: standard forecast or significant change
Winds:from the S (190 degrees) at 6 MPH (5 knots; 2.6 m/s)
Visibility:6 or more sm (10+ km)
Ceiling:5000 feet AGL
Clouds: few clouds at 3500 feet AGL, broken clouds at 5000 feet AGL
Text:FM180000 21005KT P6SM VCSH FEW015 OVC040
Forecast period:0000 to 0800 UTC 18 November 2019
Forecast type:FROM: standard forecast or significant change
Winds:from the SSW (210 degrees) at 6 MPH (5 knots; 2.6 m/s)
Visibility:6 or more sm (10+ km)
Ceiling:4000 feet AGL
Clouds: few clouds at 1500 feet AGL, overcast cloud deck at 4000 feet AGL
Weather:VCSH (showers in vicinity)
Text:FM180800 16005KT P6SM FEW020 BKN050
Forecast period:0800 UTC 18 November 2019 to 0000 UTC 19 November 2019
Forecast type:FROM: standard forecast or significant change
Winds:from the SSE (160 degrees) at 6 MPH (5 knots; 2.6 m/s)
Visibility:6 or more sm (10+ km)
Ceiling:5000 feet AGL
Clouds: few clouds at 2000 feet AGL, broken clouds at 5000 feet AGL